sensor_id;sensor_type;location;lat;lon;timestamp;P1;durP1;ratioP1;P2;durP2;ratioP2
59263;SDS011;45030;42.720;23.344;2023-04-02T00:04:54;4.05;;;2.03;;
59263;SDS011;45030;42.720;23.344;2023-04-02T00:07:30;4.45;;;2.53;;
59263;SDS011;45030;42.720;23.344;2023-04-02T00:09:57;2.50;;;2.05;;
59263;SDS011;45030;42.720;23.344;2023-04-02T00:12:22;2.47;;;2.10;;
59263;SDS011;45030;42.720;23.344;2023-04-02T00:14:52;5.38;;;3.10;;
59263;SDS011;45030;42.720;23.344;2023-04-02T00:17:19;5.75;;;2.92;;
59263;SDS011;45030;42.720;23.344;2023-04-02T00:19:50;4.82;;;2.30;;
59263;SDS011;45030;42.720;23.344;2023-04-02T00:22:18;5.85;;;3.20;;
59263;SDS011;45030;42.720;23.344;2023-04-02T00:24:43;5.10;;;3.45;;
59263;SDS011;45030;42.720;23.344;2023-04-02T00:27:09;5.40;;;3.88;;
59263;SDS011;45030;42.720;23.344;2023-04-02T00:29:35;7.15;;;3.78;;
59263;SDS011;45030;42.720;23.344;2023-04-02T00:32:01;5.53;;;3.50;;
59263;SDS011;45030;42.720;23.344;2023-04-02T00:34:27;5.68;;;3.60;;
59263;SDS011;45030;42.720;23.344;2023-04-02T00:36:54;3.80;;;3.35;;
59263;SDS011;45030;42.720;23.344;2023-04-02T00:39:23;4.93;;;3.35;;
59263;SDS011;45030;42.720;23.344;2023-04-02T00:41:50;5.60;;;3.22;;
59263;SDS011;45030;42.720;23.344;2023-04-02T00:44:22;4.40;;;3.08;;
59263;SDS011;45030;42.720;23.344;2023-04-02T00:46:48;6.15;;;2.42;;
59263;SDS011;45030;42.720;23.344;2023-04-02T00:51:47;4.55;;;3.17;;
59263;SDS011;45030;42.720;23.344;2023-04-02T00:54:13;3.78;;;2.70;;
59263;SDS011;45030;42.720;23.344;2023-04-02T00:56:43;4.90;;;2.90;;
59263;SDS011;45030;42.720;23.344;2023-04-02T00:59:16;4.10;;;2.80;;
59263;SDS011;45030;42.720;23.344;2023-04-02T01:01:43;7.07;;;2.72;;
59263;SDS011;45030;42.720;23.344;2023-04-02T01:04:25;4.13;;;2.80;;
59263;SDS011;45030;42.720;23.344;2023-04-02T01:06:51;4.05;;;3.03;;
59263;SDS011;45030;42.720;23.344;2023-04-02T01:14:46;3.70;;;2.80;;
59263;SDS011;45030;42.720;23.344;2023-04-02T01:24:45;5.20;;;2.42;;
59263;SDS011;45030;42.720;23.344;2023-04-02T01:27:14;2.92;;;2.28;;
59263;SDS011;45030;42.720;23.344;2023-04-02T01:29:45;4.32;;;2.75;;
59263;SDS011;45030;42.720;23.344;2023-04-02T01:32:13;2.97;;;2.40;;
59263;SDS011;45030;42.720;23.344;2023-04-02T01:34:39;3.55;;;2.67;;
59263;SDS011;45030;42.720;23.344;2023-04-02T01:45:04;5.97;;;3.47;;
59263;SDS011;45030;42.720;23.344;2023-04-02T01:47:31;8.38;;;3.13;;
59263;SDS011;45030;42.720;23.344;2023-04-02T01:50:01;7.07;;;3.75;;
59263;SDS011;45030;42.720;23.344;2023-04-02T01:52:35;3.30;;;2.15;;
59263;SDS011;45030;42.720;23.344;2023-04-02T01:55:02;6.82;;;3.33;;
59263;SDS011;45030;42.720;23.344;2023-04-02T01:57:28;9.13;;;6.05;;
59263;SDS011;45030;42.720;23.344;2023-04-02T01:59:53;8.77;;;5.03;;
59263;SDS011;45030;42.720;23.344;2023-04-02T02:02:19;9.75;;;4.60;;
59263;SDS011;45030;42.720;23.344;2023-04-02T02:04:46;9.63;;;4.53;;
59263;SDS011;45030;42.720;23.344;2023-04-02T02:07:15;7.25;;;3.38;;
59263;SDS011;45030;42.720;23.344;2023-04-02T02:09:41;3.13;;;2.25;;
59263;SDS011;45030;42.720;23.344;2023-04-02T02:12:08;3.08;;;2.08;;
59263;SDS011;45030;42.720;23.344;2023-04-02T02:14:37;3.67;;;2.15;;
59263;SDS011;45030;42.720;23.344;2023-04-02T02:17:02;2.53;;;1.88;;
59263;SDS011;45030;42.720;23.344;2023-04-02T02:19:37;5.07;;;2.90;;
59263;SDS011;45030;42.720;23.344;2023-04-02T02:22:13;6.35;;;2.58;;
59263;SDS011;45030;42.720;23.344;2023-04-02T02:24:41;6.10;;;2.67;;
59263;SDS011;45030;42.720;23.344;2023-04-02T02:32:31;5.75;;;2.67;;
59263;SDS011;45030;42.720;23.344;2023-04-02T02:34:59;3.40;;;1.92;;
59263;SDS011;45030;42.720;23.344;2023-04-02T02:37:30;2.95;;;2.35;;
59263;SDS011;45030;42.720;23.344;2023-04-02T02:39:59;3.78;;;2.55;;
59263;SDS011;45030;42.720;23.344;2023-04-02T02:42:30;3.97;;;2.80;;
59263;SDS011;45030;42.720;23.344;2023-04-02T02:44:56;5.15;;;3.40;;
59263;SDS011;45030;42.720;23.344;2023-04-02T02:47:27;3.35;;;2.67;;
59263;SDS011;45030;42.720;23.344;2023-04-02T02:49:53;2.45;;;1.88;;
59263;SDS011;45030;42.720;23.344;2023-04-02T02:52:43;4.38;;;3.25;;
59263;SDS011;45030;42.720;23.344;2023-04-02T02:55:06;10.35;;;3.55;;
59263;SDS011;45030;42.720;23.344;2023-04-02T02:57:35;5.07;;;3.03;;
59263;SDS011;45030;42.720;23.344;2023-04-02T03:00:02;4.82;;;3.20;;
59263;SDS011;45030;42.720;23.344;2023-04-02T03:02:30;4.22;;;3.42;;
59263;SDS011;45030;42.720;23.344;2023-04-02T03:04:56;5.13;;;2.47;;
59263;SDS011;45030;42.720;23.344;2023-04-02T03:07:22;4.43;;;3.33;;
59263;SDS011;45030;42.720;23.344;2023-04-02T03:12:35;15.10;;;5.10;;
59263;SDS011;45030;42.720;23.344;2023-04-02T03:17:33;10.35;;;4.75;;
59263;SDS011;45030;42.720;23.344;2023-04-02T03:20:02;5.10;;;3.20;;
59263;SDS011;45030;42.720;23.344;2023-04-02T03:22:33;3.33;;;2.72;;
59263;SDS011;45030;42.720;23.344;2023-04-02T03:25:05;5.15;;;3.17;;
59263;SDS011;45030;42.720;23.344;2023-04-02T03:27:38;6.18;;;2.50;;
59263;SDS011;45030;42.720;23.344;2023-04-02T03:32:31;2.50;;;2.00;;
59263;SDS011;45030;42.720;23.344;2023-04-02T03:34:59;4.90;;;2.42;;
59263;SDS011;45030;42.720;23.344;2023-04-02T03:37:28;3.80;;;2.25;;
59263;SDS011;45030;42.720;23.344;2023-04-02T03:42:21;2.83;;;2.25;;
59263;SDS011;45030;42.720;23.344;2023-04-02T03:44:51;4.60;;;3.30;;
59263;SDS011;45030;42.720;23.344;2023-04-02T03:50:26;7.80;;;3.95;;
59263;SDS011;45030;42.720;23.344;2023-04-02T03:52:32;5.18;;;3.03;;
59263;SDS011;45030;42.720;23.344;2023-04-02T03:54:59;5.65;;;3.75;;
59263;SDS011;45030;42.720;23.344;2023-04-02T03:59:55;5.55;;;3.20;;
59263;SDS011;45030;42.720;23.344;2023-04-02T04:02:33;5.00;;;3.30;;
59263;SDS011;45030;42.720;23.344;2023-04-02T04:05:02;5.72;;;3.88;;
59263;SDS011;45030;42.720;23.344;2023-04-02T04:07:33;5.03;;;3.92;;
59263;SDS011;45030;42.720;23.344;2023-04-02T04:10:00;5.53;;;4.25;;
59263;SDS011;45030;42.720;23.344;2023-04-02T04:12:29;4.07;;;3.17;;
59263;SDS011;45030;42.720;23.344;2023-04-02T04:17:49;5.43;;;3.70;;
59263;SDS011;45030;42.720;23.344;2023-04-02T04:20:19;5.22;;;3.83;;
59263;SDS011;45030;42.720;23.344;2023-04-02T04:22:46;5.22;;;3.20;;
59263;SDS011;45030;42.720;23.344;2023-04-02T04:25:31;5.22;;;3.03;;
59263;SDS011;45030;42.720;23.344;2023-04-02T04:28:09;5.43;;;3.00;;
59263;SDS011;45030;42.720;23.344;2023-04-02T04:30:46;10.98;;;5.28;;
59263;SDS011;45030;42.720;23.344;2023-04-02T04:33:22;9.45;;;6.25;;
59263;SDS011;45030;42.720;23.344;2023-04-02T04:35:56;6.93;;;5.55;;
59263;SDS011;45030;42.720;23.344;2023-04-02T04:38:32;5.63;;;3.50;;
59263;SDS011;45030;42.720;23.344;2023-04-02T04:41:09;5.68;;;4.20;;
59263;SDS011;45030;42.720;23.344;2023-04-02T04:43:46;7.28;;;5.38;;
59263;SDS011;45030;42.720;23.344;2023-04-02T04:46:14;7.97;;;6.65;;
59263;SDS011;45030;42.720;23.344;2023-04-02T04:48:45;7.32;;;4.22;;
59263;SDS011;45030;42.720;23.344;2023-04-02T04:51:23;5.50;;;3.80;;
59263;SDS011;45030;42.720;23.344;2023-04-02T04:53:50;4.18;;;3.78;;
59263;SDS011;45030;42.720;23.344;2023-04-02T04:56:16;5.07;;;3.10;;
59263;SDS011;45030;42.720;23.344;2023-04-02T04:58:45;14.07;;;6.82;;
59263;SDS011;45030;42.720;23.344;2023-04-02T05:03:45;10.35;;;6.07;;
59263;SDS011;45030;42.720;23.344;2023-04-02T05:08:40;13.55;;;6.80;;
59263;SDS011;45030;42.720;23.344;2023-04-02T05:11:57;10.38;;;5.60;;
59263;SDS011;45030;42.720;23.344;2023-04-02T05:13:56;13.90;;;7.18;;
59263;SDS011;45030;42.720;23.344;2023-04-02T05:16:39;11.95;;;5.28;;
59263;SDS011;45030;42.720;23.344;2023-04-02T05:26:41;6.65;;;4.25;;
59263;SDS011;45030;42.720;23.344;2023-04-02T05:29:09;8.05;;;5.28;;
59263;SDS011;45030;42.720;23.344;2023-04-02T05:31:37;8.77;;;4.93;;
59263;SDS011;45030;42.720;23.344;2023-04-02T05:34:04;10.25;;;5.72;;
59263;SDS011;45030;42.720;23.344;2023-04-02T05:36:29;9.30;;;5.18;;
59263;SDS011;45030;42.720;23.344;2023-04-02T05:38:55;10.48;;;4.93;;
59263;SDS011;45030;42.720;23.344;2023-04-02T05:41:28;12.15;;;5.35;;
59263;SDS011;45030;42.720;23.344;2023-04-02T05:44:34;8.98;;;5.28;;
59263;SDS011;45030;42.720;23.344;2023-04-02T05:47:00;7.68;;;4.13;;
59263;SDS011;45030;42.720;23.344;2023-04-02T05:49:34;5.13;;;3.65;;
59263;SDS011;45030;42.720;23.344;2023-04-02T05:52:04;7.93;;;4.32;;
59263;SDS011;45030;42.720;23.344;2023-04-02T05:57:16;8.60;;;4.65;;
59263;SDS011;45030;42.720;23.344;2023-04-02T05:59:52;3.95;;;3.33;;
59263;SDS011;45030;42.720;23.344;2023-04-02T06:02:41;4.75;;;2.28;;
59263;SDS011;45030;42.720;23.344;2023-04-02T06:05:15;3.92;;;2.50;;
59263;SDS011;45030;42.720;23.344;2023-04-02T06:12:42;7.30;;;4.53;;
59263;SDS011;45030;42.720;23.344;2023-04-02T06:15:12;5.43;;;3.17;;
59263;SDS011;45030;42.720;23.344;2023-04-02T06:17:45;4.03;;;2.20;;
59263;SDS011;45030;42.720;23.344;2023-04-02T06:20:12;5.22;;;2.60;;
59263;SDS011;45030;42.720;23.344;2023-04-02T06:22:39;4.45;;;2.40;;
59263;SDS011;45030;42.720;23.344;2023-04-02T06:27:46;8.35;;;4.65;;
59263;SDS011;45030;42.720;23.344;2023-04-02T06:30:15;3.42;;;2.42;;
59263;SDS011;45030;42.720;23.344;2023-04-02T06:32:41;2.88;;;1.90;;
59263;SDS011;45030;42.720;23.344;2023-04-02T06:35:10;4.47;;;2.60;;
59263;SDS011;45030;42.720;23.344;2023-04-02T06:37:36;5.13;;;2.72;;
59263;SDS011;45030;42.720;23.344;2023-04-02T06:40:03;2.80;;;2.33;;
59263;SDS011;45030;42.720;23.344;2023-04-02T06:42:36;3.55;;;2.05;;
59263;SDS011;45030;42.720;23.344;2023-04-02T06:45:03;1.73;;;1.40;;
59263;SDS011;45030;42.720;23.344;2023-04-02T06:47:33;4.30;;;1.30;;
59263;SDS011;45030;42.720;23.344;2023-04-02T06:50:04;4.43;;;2.30;;
59263;SDS011;45030;42.720;23.344;2023-04-02T06:52:32;8.40;;;3.10;;
59263;SDS011;45030;42.720;23.344;2023-04-02T06:54:58;4.07;;;2.00;;
59263;SDS011;45030;42.720;23.344;2023-04-02T06:57:24;2.65;;;1.30;;
59263;SDS011;45030;42.720;23.344;2023-04-02T06:59:49;3.25;;;1.35;;
59263;SDS011;45030;42.720;23.344;2023-04-02T07:02:26;4.15;;;1.60;;
59263;SDS011;45030;42.720;23.344;2023-04-02T07:04:54;3.75;;;1.63;;
59263;SDS011;45030;42.720;23.344;2023-04-02T07:07:21;3.28;;;1.60;;
59263;SDS011;45030;42.720;23.344;2023-04-02T07:09:46;3.50;;;1.80;;
59263;SDS011;45030;42.720;23.344;2023-04-02T07:12:12;3.25;;;1.65;;
59263;SDS011;45030;42.720;23.344;2023-04-02T07:14:37;5.03;;;1.40;;
59263;SDS011;45030;42.720;23.344;2023-04-02T07:17:02;6.53;;;2.10;;
59263;SDS011;45030;42.720;23.344;2023-04-02T07:19:28;4.28;;;1.80;;
59263;SDS011;45030;42.720;23.344;2023-04-02T07:21:53;5.00;;;2.33;;
59263;SDS011;45030;42.720;23.344;2023-04-02T07:24:18;4.30;;;2.00;;
59263;SDS011;45030;42.720;23.344;2023-04-02T07:26:43;3.53;;;2.00;;
59263;SDS011;45030;42.720;23.344;2023-04-02T07:29:12;8.40;;;1.73;;
59263;SDS011;45030;42.720;23.344;2023-04-02T07:31:38;9.35;;;2.55;;
59263;SDS011;45030;42.720;23.344;2023-04-02T07:34:05;3.78;;;1.33;;
59263;SDS011;45030;42.720;23.344;2023-04-02T07:36:30;2.25;;;1.27;;
59263;SDS011;45030;42.720;23.344;2023-04-02T07:38:55;1.17;;;0.55;;
59263;SDS011;45030;42.720;23.344;2023-04-02T07:41:21;2.83;;;0.65;;
59263;SDS011;45030;42.720;23.344;2023-04-02T07:43:47;3.08;;;1.00;;
59263;SDS011;45030;42.720;23.344;2023-04-02T07:46:12;1.85;;;0.95;;
59263;SDS011;45030;42.720;23.344;2023-04-02T07:48:40;2.42;;;1.10;;
59263;SDS011;45030;42.720;23.344;2023-04-02T07:51:13;2.15;;;1.20;;
59263;SDS011;45030;42.720;23.344;2023-04-02T07:53:38;1.38;;;0.93;;
59263;SDS011;45030;42.720;23.344;2023-04-02T07:56:05;3.15;;;1.17;;
59263;SDS011;45030;42.720;23.344;2023-04-02T07:58:31;1.20;;;0.68;;
59263;SDS011;45030;42.720;23.344;2023-04-02T08:00:57;1.08;;;0.65;;
59263;SDS011;45030;42.720;23.344;2023-04-02T08:03:22;2.70;;;1.17;;
59263;SDS011;45030;42.720;23.344;2023-04-02T08:05:57;1.63;;;0.80;;
59263;SDS011;45030;42.720;23.344;2023-04-02T08:08:23;1.98;;;0.77;;
59263;SDS011;45030;42.720;23.344;2023-04-02T08:10:48;2.40;;;0.70;;
59263;SDS011;45030;42.720;23.344;2023-04-02T08:13:14;1.85;;;0.70;;
59263;SDS011;45030;42.720;23.344;2023-04-02T08:15:40;2.25;;;0.60;;
59263;SDS011;45030;42.720;23.344;2023-04-02T08:18:05;1.10;;;0.60;;
59263;SDS011;45030;42.720;23.344;2023-04-02T08:20:30;4.82;;;1.02;;
59263;SDS011;45030;42.720;23.344;2023-04-02T08:22:56;1.95;;;0.80;;
59263;SDS011;45030;42.720;23.344;2023-04-02T08:25:22;1.00;;;0.55;;
59263;SDS011;45030;42.720;23.344;2023-04-02T08:27:47;0.95;;;0.50;;
59263;SDS011;45030;42.720;23.344;2023-04-02T08:30:13;0.60;;;0.50;;
59263;SDS011;45030;42.720;23.344;2023-04-02T08:32:40;0.88;;;0.68;;
59263;SDS011;45030;42.720;23.344;2023-04-02T08:35:06;1.50;;;0.70;;
59263;SDS011;45030;42.720;23.344;2023-04-02T08:37:31;1.55;;;0.60;;
59263;SDS011;45030;42.720;23.344;2023-04-02T08:39:57;2.00;;;1.30;;
59263;SDS011;45030;42.720;23.344;2023-04-02T08:42:39;1.05;;;0.60;;
59263;SDS011;45030;42.720;23.344;2023-04-02T08:47:37;1.55;;;0.77;;
59263;SDS011;45030;42.720;23.344;2023-04-02T08:52:48;2.33;;;0.60;;
59263;SDS011;45030;42.720;23.344;2023-04-02T08:55:16;3.13;;;0.93;;
59263;SDS011;45030;42.720;23.344;2023-04-02T09:02:40;2.00;;;0.80;;
59263;SDS011;45030;42.720;23.344;2023-04-02T09:05:08;1.00;;;0.70;;
59263;SDS011;45030;42.720;23.344;2023-04-02T09:07:39;2.25;;;0.80;;
59263;SDS011;45030;42.720;23.344;2023-04-02T09:10:11;1.67;;;0.85;;
59263;SDS011;45030;42.720;23.344;2023-04-02T09:12:37;0.82;;;0.70;;
59263;SDS011;45030;42.720;23.344;2023-04-02T09:17:30;1.38;;;0.85;;
59263;SDS011;45030;42.720;23.344;2023-04-02T09:22:27;1.83;;;0.80;;
59263;SDS011;45030;42.720;23.344;2023-04-02T09:24:54;2.15;;;0.70;;
59263;SDS011;45030;42.720;23.344;2023-04-02T09:27:22;2.00;;;0.82;;
59263;SDS011;45030;42.720;23.344;2023-04-02T09:29:48;2.20;;;0.60;;
59263;SDS011;45030;42.720;23.344;2023-04-02T09:32:34;0.85;;;0.50;;
59263;SDS011;45030;42.720;23.344;2023-04-02T09:37:42;1.40;;;0.90;;
59263;SDS011;45030;42.720;23.344;2023-04-02T09:40:27;1.63;;;0.90;;
59263;SDS011;45030;42.720;23.344;2023-04-02T09:43:10;1.05;;;0.88;;
59263;SDS011;45030;42.720;23.344;2023-04-02T09:45:36;1.05;;;0.75;;
59263;SDS011;45030;42.720;23.344;2023-04-02T09:48:02;1.50;;;0.70;;
59263;SDS011;45030;42.720;23.344;2023-04-02T09:50:38;2.17;;;1.10;;
59263;SDS011;45030;42.720;23.344;2023-04-02T09:55:48;0.40;;;0.40;;
59263;SDS011;45030;42.720;23.344;2023-04-02T09:58:14;1.67;;;0.95;;
59263;SDS011;45030;42.720;23.344;2023-04-02T10:00:48;0.93;;;0.70;;
59263;SDS011;45030;42.720;23.344;2023-04-02T10:05:47;1.30;;;0.70;;
59263;SDS011;45030;42.720;23.344;2023-04-02T10:08:20;1.50;;;0.80;;
59263;SDS011;45030;42.720;23.344;2023-04-02T10:10:49;0.88;;;0.65;;
59263;SDS011;45030;42.720;23.344;2023-04-02T10:13:21;1.63;;;0.90;;
59263;SDS011;45030;42.720;23.344;2023-04-02T10:20:46;0.85;;;0.57;;
59263;SDS011;45030;42.720;23.344;2023-04-02T10:23:15;0.85;;;0.70;;
59263;SDS011;45030;42.720;23.344;2023-04-02T10:25:41;0.57;;;0.40;;
59263;SDS011;45030;42.720;23.344;2023-04-02T10:30:42;2.38;;;0.98;;
59263;SDS011;45030;42.720;23.344;2023-04-02T10:33:17;2.05;;;0.80;;
59263;SDS011;45030;42.720;23.344;2023-04-02T10:35:56;2.83;;;0.60;;
59263;SDS011;45030;42.720;23.344;2023-04-02T10:51:56;1.27;;;0.73;;
59263;SDS011;45030;42.720;23.344;2023-04-02T10:54:56;2.55;;;1.38;;
59263;SDS011;45030;42.720;23.344;2023-04-02T10:59:47;1.27;;;0.65;;
59263;SDS011;45030;42.720;23.344;2023-04-02T11:04:53;3.42;;;1.42;;
59263;SDS011;45030;42.720;23.344;2023-04-02T11:07:21;0.93;;;0.68;;
59263;SDS011;45030;42.720;23.344;2023-04-02T11:09:48;2.58;;;1.15;;
59263;SDS011;45030;42.720;23.344;2023-04-02T11:12:28;1.83;;;0.70;;
59263;SDS011;45030;42.720;23.344;2023-04-02T11:14:56;2.30;;;0.93;;
59263;SDS011;45030;42.720;23.344;2023-04-02T11:17:21;1.27;;;0.45;;
59263;SDS011;45030;42.720;23.344;2023-04-02T11:19:47;0.98;;;0.60;;
59263;SDS011;45030;42.720;23.344;2023-04-02T11:22:13;2.03;;;1.00;;
59263;SDS011;45030;42.720;23.344;2023-04-02T11:24:45;1.05;;;0.63;;
59263;SDS011;45030;42.720;23.344;2023-04-02T11:29:43;1.05;;;0.40;;
59263;SDS011;45030;42.720;23.344;2023-04-02T11:39:54;1.42;;;0.73;;
59263;SDS011;45030;42.720;23.344;2023-04-02T11:42:30;1.08;;;0.40;;
59263;SDS011;45030;42.720;23.344;2023-04-02T11:50:41;0.80;;;0.43;;
59263;SDS011;45030;42.720;23.344;2023-04-02T11:56:16;2.10;;;0.50;;
59263;SDS011;45030;42.720;23.344;2023-04-02T11:58:42;0.85;;;0.43;;
59263;SDS011;45030;42.720;23.344;2023-04-02T12:04:01;1.55;;;0.60;;
59263;SDS011;45030;42.720;23.344;2023-04-02T12:11:39;0.70;;;0.70;;
59263;SDS011;45030;42.720;23.344;2023-04-02T12:16:48;1.40;;;0.90;;
59263;SDS011;45030;42.720;23.344;2023-04-02T12:19:13;0.50;;;0.40;;
59263;SDS011;45030;42.720;23.344;2023-04-02T12:21:40;2.20;;;0.70;;
59263;SDS011;45030;42.720;23.344;2023-04-02T12:24:11;1.42;;;0.50;;
59263;SDS011;45030;42.720;23.344;2023-04-02T12:26:38;1.02;;;0.55;;
59263;SDS011;45030;42.720;23.344;2023-04-02T12:29:25;0.80;;;0.40;;
59263;SDS011;45030;42.720;23.344;2023-04-02T12:31:51;1.52;;;0.80;;
59263;SDS011;45030;42.720;23.344;2023-04-02T12:34:17;0.70;;;0.50;;
59263;SDS011;45030;42.720;23.344;2023-04-02T12:36:53;1.27;;;0.70;;
59263;SDS011;45030;42.720;23.344;2023-04-02T12:39:19;1.85;;;0.40;;
59263;SDS011;45030;42.720;23.344;2023-04-02T12:41:45;0.90;;;0.50;;
59263;SDS011;45030;42.720;23.344;2023-04-02T12:44:14;0.60;;;0.40;;
59263;SDS011;45030;42.720;23.344;2023-04-02T12:46:40;0.70;;;0.55;;
59263;SDS011;45030;42.720;23.344;2023-04-02T12:49:07;1.17;;;0.80;;
59263;SDS011;45030;42.720;23.344;2023-04-02T12:51:36;0.68;;;0.50;;
59263;SDS011;45030;42.720;23.344;2023-04-02T12:54:01;0.90;;;0.50;;
59263;SDS011;45030;42.720;23.344;2023-04-02T12:56:27;2.60;;;0.60;;
59263;SDS011;45030;42.720;23.344;2023-04-02T13:01:18;4.00;;;0.90;;
59263;SDS011;45030;42.720;23.344;2023-04-02T13:06:27;1.08;;;0.73;;
59263;SDS011;45030;42.720;23.344;2023-04-02T13:08:54;2.72;;;0.63;;
59263;SDS011;45030;42.720;23.344;2023-04-02T13:11:20;0.80;;;0.50;;
59263;SDS011;45030;42.720;23.344;2023-04-02T13:13:46;0.88;;;0.30;;
59263;SDS011;45030;42.720;23.344;2023-04-02T13:18:44;1.17;;;0.60;;
59263;SDS011;45030;42.720;23.344;2023-04-02T13:23:41;0.28;;;0.20;;
59263;SDS011;45030;42.720;23.344;2023-04-02T13:28:41;0.45;;;0.30;;
59263;SDS011;45030;42.720;23.344;2023-04-02T13:31:11;1.60;;;0.25;;
59263;SDS011;45030;42.720;23.344;2023-04-02T13:33:38;0.32;;;0.30;;
59263;SDS011;45030;42.720;23.344;2023-04-02T13:36:03;0.70;;;0.50;;
59263;SDS011;45030;42.720;23.344;2023-04-02T13:38:29;0.60;;;0.40;;
59263;SDS011;45030;42.720;23.344;2023-04-02T13:40:54;0.40;;;0.30;;
59263;SDS011;45030;42.720;23.344;2023-04-02T13:43:19;0.75;;;0.40;;
59263;SDS011;45030;42.720;23.344;2023-04-02T13:45:46;0.70;;;0.50;;
59263;SDS011;45030;42.720;23.344;2023-04-02T13:48:13;1.20;;;0.68;;
59263;SDS011;45030;42.720;23.344;2023-04-02T13:50:39;0.70;;;0.70;;
59263;SDS011;45030;42.720;23.344;2023-04-02T13:53:05;3.22;;;1.38;;
59263;SDS011;45030;42.720;23.344;2023-04-02T13:55:33;0.82;;;0.55;;
59263;SDS011;45030;42.720;23.344;2023-04-02T13:57:59;1.77;;;0.68;;
59263;SDS011;45030;42.720;23.344;2023-04-02T14:00:24;0.90;;;0.60;;
59263;SDS011;45030;42.720;23.344;2023-04-02T14:02:53;1.92;;;0.73;;
59263;SDS011;45030;42.720;23.344;2023-04-02T14:05:31;2.33;;;1.20;;
59263;SDS011;45030;42.720;23.344;2023-04-02T14:20:35;1.55;;;0.50;;
59263;SDS011;45030;42.720;23.344;2023-04-02T14:23:10;1.00;;;0.50;;
59263;SDS011;45030;42.720;23.344;2023-04-02T14:35:44;1.77;;;0.70;;
59263;SDS011;45030;42.720;23.344;2023-04-02T14:43:18;0.53;;;0.50;;
59263;SDS011;45030;42.720;23.344;2023-04-02T14:45:55;0.90;;;0.60;;
59263;SDS011;45030;42.720;23.344;2023-04-02T14:50:46;1.30;;;0.70;;
59263;SDS011;45030;42.720;23.344;2023-04-02T14:53:20;2.03;;;0.82;;
59263;SDS011;45030;42.720;23.344;2023-04-02T14:55:48;0.65;;;0.40;;
59263;SDS011;45030;42.720;23.344;2023-04-02T14:58:23;1.05;;;0.45;;
59263;SDS011;45030;42.720;23.344;2023-04-02T15:00:53;0.65;;;0.52;;
59263;SDS011;45030;42.720;23.344;2023-04-02T15:03:21;1.67;;;0.73;;
59263;SDS011;45030;42.720;23.344;2023-04-02T15:05:52;2.05;;;0.90;;
59263;SDS011;45030;42.720;23.344;2023-04-02T15:08:19;2.15;;;1.05;;
59263;SDS011;45030;42.720;23.344;2023-04-02T15:13:24;5.68;;;2.20;;
59263;SDS011;45030;42.720;23.344;2023-04-02T15:15:52;1.30;;;0.95;;
59263;SDS011;45030;42.720;23.344;2023-04-02T15:18:20;0.80;;;0.50;;
59263;SDS011;45030;42.720;23.344;2023-04-02T15:24:03;1.23;;;0.80;;
59263;SDS011;45030;42.720;23.344;2023-04-02T15:31:45;0.95;;;0.55;;
59263;SDS011;45030;42.720;23.344;2023-04-02T15:34:19;3.45;;;2.03;;
59263;SDS011;45030;42.720;23.344;2023-04-02T15:42:22;1.42;;;0.90;;
59263;SDS011;45030;42.720;23.344;2023-04-02T15:44:59;1.92;;;0.90;;
59263;SDS011;45030;42.720;23.344;2023-04-02T15:47:47;1.75;;;0.70;;
59263;SDS011;45030;42.720;23.344;2023-04-02T15:52:52;3.30;;;1.70;;
59263;SDS011;45030;42.720;23.344;2023-04-02T16:00:35;1.45;;;0.55;;
59263;SDS011;45030;42.720;23.344;2023-04-02T16:10:43;3.05;;;1.40;;
59263;SDS011;45030;42.720;23.344;2023-04-02T16:13:29;2.40;;;1.08;;
59263;SDS011;45030;42.720;23.344;2023-04-02T16:16:05;3.55;;;1.58;;
59263;SDS011;45030;42.720;23.344;2023-04-02T16:20:58;2.80;;;1.30;;
59263;SDS011;45030;42.720;23.344;2023-04-02T16:23:30;4.15;;;1.48;;
59263;SDS011;45030;42.720;23.344;2023-04-02T16:31:30;6.03;;;1.63;;
59263;SDS011;45030;42.720;23.344;2023-04-02T16:51:54;3.87;;;2.30;;
59263;SDS011;45030;42.720;23.344;2023-04-02T17:07:44;10.20;;;4.25;;
59263;SDS011;45030;42.720;23.344;2023-04-02T17:15:37;13.10;;;4.50;;
59263;SDS011;45030;42.720;23.344;2023-04-02T17:18:13;9.10;;;4.40;;
59263;SDS011;45030;42.720;23.344;2023-04-02T17:20:40;4.63;;;2.50;;
59263;SDS011;45030;42.720;23.344;2023-04-02T17:23:07;4.78;;;3.38;;
59263;SDS011;45030;42.720;23.344;2023-04-02T17:25:34;5.88;;;3.30;;
59263;SDS011;45030;42.720;23.344;2023-04-02T17:28:00;6.85;;;3.72;;
59263;SDS011;45030;42.720;23.344;2023-04-02T17:32:57;4.70;;;2.70;;
59263;SDS011;45030;42.720;23.344;2023-04-02T17:49:01;9.15;;;4.25;;
59263;SDS011;45030;42.720;23.344;2023-04-02T17:51:34;8.25;;;4.53;;
59263;SDS011;45030;42.720;23.344;2023-04-02T18:12:25;5.45;;;3.40;;
59263;SDS011;45030;42.720;23.344;2023-04-02T18:30:49;7.43;;;3.95;;
59263;SDS011;45030;42.720;23.344;2023-04-02T18:33:21;7.40;;;3.63;;
59263;SDS011;45030;42.720;23.344;2023-04-02T18:41:06;9.20;;;4.82;;
59263;SDS011;45030;42.720;23.344;2023-04-02T18:44:14;10.15;;;5.68;;
59263;SDS011;45030;42.720;23.344;2023-04-02T18:51:23;9.20;;;4.45;;
59263;SDS011;45030;42.720;23.344;2023-04-02T18:56:16;10.85;;;4.90;;
59263;SDS011;45030;42.720;23.344;2023-04-02T19:01:10;10.32;;;5.38;;
59263;SDS011;45030;42.720;23.344;2023-04-02T19:03:42;8.63;;;4.10;;
59263;SDS011;45030;42.720;23.344;2023-04-02T19:06:11;12.50;;;5.70;;
59263;SDS011;45030;42.720;23.344;2023-04-02T19:11:04;14.93;;;6.40;;
59263;SDS011;45030;42.720;23.344;2023-04-02T19:13:31;9.30;;;5.57;;
59263;SDS011;45030;42.720;23.344;2023-04-02T19:21:34;11.48;;;5.10;;
59263;SDS011;45030;42.720;23.344;2023-04-02T19:26:39;10.20;;;5.15;;
59263;SDS011;45030;42.720;23.344;2023-04-02T19:31:41;9.38;;;4.57;;
59263;SDS011;45030;42.720;23.344;2023-04-02T19:36:55;9.35;;;4.78;;
59263;SDS011;45030;42.720;23.344;2023-04-02T19:44:30;9.40;;;3.88;;
59263;SDS011;45030;42.720;23.344;2023-04-02T19:46:56;7.57;;;4.35;;
59263;SDS011;45030;42.720;23.344;2023-04-02T19:49:31;6.32;;;4.50;;
59263;SDS011;45030;42.720;23.344;2023-04-02T19:51:57;9.15;;;4.03;;
59263;SDS011;45030;42.720;23.344;2023-04-02T19:54:23;6.95;;;3.55;;
59263;SDS011;45030;42.720;23.344;2023-04-02T19:56:48;7.03;;;4.13;;
59263;SDS011;45030;42.720;23.344;2023-04-02T19:59:14;8.60;;;4.57;;
59263;SDS011;45030;42.720;23.344;2023-04-02T20:01:39;6.35;;;3.08;;
59263;SDS011;45030;42.720;23.344;2023-04-02T20:04:04;5.13;;;3.00;;
59263;SDS011;45030;42.720;23.344;2023-04-02T20:06:30;5.82;;;3.55;;
59263;SDS011;45030;42.720;23.344;2023-04-02T20:08:58;7.70;;;5.18;;
59263;SDS011;45030;42.720;23.344;2023-04-02T20:11:25;4.85;;;3.03;;
59263;SDS011;45030;42.720;23.344;2023-04-02T20:13:50;6.15;;;3.42;;
59263;SDS011;45030;42.720;23.344;2023-04-02T20:16:16;11.27;;;4.95;;
59263;SDS011;45030;42.720;23.344;2023-04-02T20:18:42;5.22;;;3.00;;
59263;SDS011;45030;42.720;23.344;2023-04-02T20:21:08;6.93;;;3.90;;
59263;SDS011;45030;42.720;23.344;2023-04-02T20:23:33;6.75;;;4.05;;
59263;SDS011;45030;42.720;23.344;2023-04-02T20:25:59;6.90;;;3.58;;
59263;SDS011;45030;42.720;23.344;2023-04-02T20:28:25;7.72;;;4.90;;
59263;SDS011;45030;42.720;23.344;2023-04-02T20:30:51;6.55;;;3.58;;
59263;SDS011;45030;42.720;23.344;2023-04-02T20:33:17;7.45;;;3.95;;
59263;SDS011;45030;42.720;23.344;2023-04-02T20:35:42;6.75;;;4.05;;
59263;SDS011;45030;42.720;23.344;2023-04-02T20:38:08;12.07;;;4.25;;
59263;SDS011;45030;42.720;23.344;2023-04-02T20:40:33;13.25;;;6.20;;
59263;SDS011;45030;42.720;23.344;2023-04-02T20:42:59;13.02;;;4.97;;